地図

経路データ

SID SEASON NUMBER BASIN SUBBASIN NAME ISO_TIME NATURE LAT LON WMO_WIND WMO_PRES WMO_AGENCY TRACK_TYPE DIST2LAND LANDFALL IFLAG USA_AGENCY USA_ATCF_ID USA_LAT USA_LON USA_RECORD USA_STATUS USA_WIND USA_PRES USA_SSHS USA_R34_NE USA_R34_SE USA_R34_SW USA_R34_NW USA_R50_NE USA_R50_SE USA_R50_SW USA_R50_NW USA_R64_NE USA_R64_SE USA_R64_SW USA_R64_NW USA_POCI USA_ROCI USA_RMW USA_EYE TOKYO_LAT TOKYO_LON TOKYO_GRADE TOKYO_WIND TOKYO_PRES TOKYO_R50_DIR TOKYO_R50_LONG TOKYO_R50_SHORT TOKYO_R30_DIR TOKYO_R30_LONG TOKYO_R30_SHORT TOKYO_LAND CMA_LAT CMA_LON CMA_CAT CMA_WIND CMA_PRES HKO_LAT HKO_LON HKO_CAT HKO_WIND HKO_PRES NEWDELHI_LAT NEWDELHI_LON NEWDELHI_GRADE NEWDELHI_WIND NEWDELHI_PRES NEWDELHI_CI NEWDELHI_DP NEWDELHI_POCI REUNION_LAT REUNION_LON REUNION_TYPE REUNION_WIND REUNION_PRES REUNION_TNUM REUNION_CI REUNION_RMW REUNION_R34_NE REUNION_R34_SE REUNION_R34_SW REUNION_R34_NW REUNION_R50_NE REUNION_R50_SE REUNION_R50_SW REUNION_R50_NW REUNION_R64_NE REUNION_R64_SE REUNION_R64_SW REUNION_R64_NW BOM_LAT BOM_LON BOM_TYPE BOM_WIND BOM_PRES BOM_TNUM BOM_CI BOM_RMW BOM_R34_NE BOM_R34_SE BOM_R34_SW BOM_R34_NW BOM_R50_NE BOM_R50_SE BOM_R50_SW BOM_R50_NW BOM_R64_NE BOM_R64_SE BOM_R64_SW BOM_R64_NW BOM_ROCI BOM_POCI BOM_EYE BOM_POS_METHOD BOM_PRES_METHOD NADI_LAT NADI_LON NADI_CAT NADI_WIND NADI_PRES WELLINGTON_LAT WELLINGTON_LON WELLINGTON_WIND WELLINGTON_PRES DS824_LAT DS824_LON DS824_STAGE DS824_WIND DS824_PRES TD9636_LAT TD9636_LON TD9636_STAGE TD9636_WIND TD9636_PRES TD9635_LAT TD9635_LON TD9635_WIND TD9635_PRES TD9635_ROCI NEUMANN_LAT NEUMANN_LON NEUMANN_CLASS NEUMANN_WIND NEUMANN_PRES MLC_LAT MLC_LON MLC_CLASS MLC_WIND MLC_PRES USA_GUST BOM_GUST BOM_GUST_PER REUNION_GUST REUNION_GUST_PER USA_SEAHGT USA_SEARAD_NE USA_SEARAD_SE USA_SEARAD_SW USA_SEARAD_NW STORM_SPEED STORM_DIR
1963340S05073 1964 114 SI MM AMANDA 1963-12-05 18:00:00 TS -5.30000 73.4000 reunion main 1480 1480 O________OO___ jtwc_sh SH021964 -5.30000 73.4000 -1 -5.30000 73.4000 TC -5.30000 73.4000 7 8 240
1963340S05073 1964 114 SI MM AMANDA 1963-12-05 21:00:00 TS -5.50017 73.0531 main 1516 1516 P________PP___ SH021964 -5.49005 73.0475 -1 -5.49005 73.0475 TC -5.52042 73.0642 7 8 239
1963340S05073 1964 114 SI MM AMANDA 1963-12-06 00:00:00 TS -5.71420 72.7076 reunion main 1559 1559 O________OP___ jtwc_sh SH021964 -5.70000 72.7000 -1 -5.70000 72.7000 TC -5.74260 72.7226 7 8 237
1963340S05073 1964 114 SI MM AMANDA 1963-12-06 03:00:00 TS -5.95114 72.3616 main 1605 1605 P________PP___ SH021964 -5.94246 72.3575 -1 -5.94246 72.3575 TC -5.96849 72.3698 7 9 235
1963340S05073 1964 114 SI MM AMANDA 1963-12-06 06:00:00 TS -6.20000 72.0000 reunion main 1649 1649 O________OO___ jtwc_sh SH021964 -6.20000 72.0000 -1 -6.20000 72.0000 TC 35 -6.20000 72.0000 2 9 237
1963340S05073 1964 114 SI MM AMANDA 1963-12-06 09:00:00 TS -6.44623 71.6084 main 1692 1692 P________PP___ SH021964 -6.44999 71.6075 -1 -6.44999 71.6075 TC 35 -6.43873 71.6102 2 9 238
1963340S05073 1964 114 SI MM AMANDA 1963-12-06 12:00:00 TS -6.69499 71.2025 reunion main 1745 1745 O________OP___ jtwc_sh SH021964 -6.70000 71.2000 -1 -6.70000 71.2000 TC 35 -6.68498 71.2074 2 10 238
1963340S05073 1964 114 SI MM AMANDA 1963-12-06 15:00:00 TS -6.94623 70.7953 main 1789 1789 P________PP___ SH021964 -6.94998 70.7925 -1 -6.94998 70.7925 TC 35 -6.93873 70.8008 2 9 238
1963340S05073 1964 114 SI MM AMANDA 1963-12-06 18:00:00 TS -7.20000 70.4000 reunion main 1843 1843 O________OO___ jtwc_sh SH021964 -7.20000 70.4000 -1 -7.20000 70.4000 TC 35 -7.20000 70.4000 2 9 237
1963340S05073 1964 114 SI MM AMANDA 1963-12-06 21:00:00 TS -7.43455 70.0498 main 1887 1887 P________PP___ SH021964 -7.44244 70.0499 -1 -7.44244 70.0499 TC 35 -7.41877 70.0495 2 8 235
1963340S05073 1964 114 SI MM AMANDA 1963-12-07 00:00:00 TS -7.68401 69.7004 reunion main 1896 1858 O________OP___ jtwc_sh SH021964 -7.70000 69.7000 -1 -7.70000 69.7000 TC 35 -7.65204 69.7011 2 9 234
1963340S05073 1964 114 SI MM AMANDA 1963-12-07 03:00:00 TS -7.94805 69.3289 main 1850 1788 P________PP___ SH021964 -7.95492 69.3298 -1 -7.95492 69.3298 TC 35 -7.93430 69.3273 2 10 232
1963340S05073 1964 114 SI MM AMANDA 1963-12-07 06:00:00 TS -8.30000 68.9000 reunion main 1788 1709 O________OO___ jtwc_sh SH021964 -8.30000 68.9000 -1 -8.30000 68.9000 TC 35 -8.30000 68.9000 2 13 228
1963340S05073 1964 114 SI MM AMANDA 1963-12-07 09:00:00 TS -8.80100 68.3795 main 1709 1615 P________PP___ SH021964 -8.80499 68.3800 -1 -8.80499 68.3800 TC 35 -8.79302 68.3787 2 15 225
1963340S05073 1964 114 SI MM AMANDA 1963-12-07 12:00:00 TS -9.38927 67.8009 reunion main 1615 1521 O________OP___ jtwc_sh SH021964 -9.40000 67.8000 -1 -9.40000 67.8000 TC 35 -9.36782 67.8028 2 17 224
1963340S05073 1964 114 SI MM AMANDA 1963-12-07 15:00:00 TS -9.98451 67.2050 main 1521 1428 P________PP___ SH021964 -9.98494 67.2073 -1 -9.98494 67.2073 TC 35 -9.98365 67.2004 2 17 224
1963340S05073 1964 114 SI MM AMANDA 1963-12-07 18:00:00 TS -10.6000 66.6000 reunion main 1428 1318 O________OO___ jtwc_sh SH021964 -10.6000 66.6000 -1 -10.6000 66.6000 TC 35 -10.6000 66.6000 2 19 226
1963340S05073 1964 114 SI MM AMANDA 1963-12-07 21:00:00 TS -11.3072 65.8341 main 1311 1211 P________PP___ SH021964 -11.2725 65.9851 -1 -11.2725 65.9851 TC 35 -11.2141 65.9908 2 20 228
1963340S05073 1964 114 SI MM AMANDA 1963-12-08 00:00:00 TS -11.9167 65.0990 reunion main 1211 1133 O____O___OP_O_ jtwc_sh SH021964 -11.9000 65.4000 -1 -12.1000 63.9000 99 9.90000 -11.9000 65.4000 TC 35 -11.8128 65.3963 2 -12.1000 63.9000 TC 60 17 230
1963340S05073 1964 114 SI MM AMANDA 1963-12-08 03:00:00 TS -12.3785 64.5318 main 1126 1073 P____P___PP_P_ SH021964 -12.4174 64.8549 -1 -12.3425 63.7550 99 -12.4174 64.8549 TC 50 -12.3549 64.8534 2 -12.3425 63.7550 TC 60 13 230
1963340S05073 1964 114 SI MM AMANDA 1963-12-08 06:00:00 TS -12.7263 64.1053 reunion main 1073 1026 O____O___OO_O_ jtwc_sh SH021964 -12.8000 64.4000 -1 -12.6000 63.6000 99 9.90000 -12.8000 64.4000 TC 65 -12.8000 64.4000 4 -12.6000 63.6000 TC 60 9 229
1963340S05073 1964 114 SI MM AMANDA 1963-12-08 09:00:00 TS -12.9839 63.8074 main 1026 995 P____P___PP_P_ SH021964 -13.0374 64.0473 -1 -12.8725 63.4350 99 -13.0374 64.0473 TC 65 -13.0999 64.0722 4 -12.8725 63.4350 TC 60 7 227
1963340S05073 1964 114 SI MM AMANDA 1963-12-08 12:00:00 TS -13.1808 63.6072 reunion main 995 979 O____O___OP_O_ jtwc_sh SH021964 -13.2000 63.8000 -1 -13.1000 63.3000 3 9.90000 -13.2000 63.8000 TC 65 -13.3041 63.8360 4 -13.1000 63.3000 TC 60 5 223
1963340S05073 1964 114 SI MM AMANDA 1963-12-08 15:00:00 TS -13.3282 63.4793 main 979 955 P____P___PP_P_ SH021964 -13.3999 63.6349 -1 -13.1925 63.2349 3 -13.3999 63.6349 TC 65 -13.4563 63.6569 4 -13.1925 63.2349 TC 60 4 216
1963340S05073 1964 114 SI MM AMANDA 1963-12-08 18:00:00 TS -13.4800 63.3800 reunion main 955 931 O____O___OO_O_ jtwc_sh SH021964 -13.6000 63.5000 -1 -13.3000 63.2000 99 9.90000 -13.6000 63.5000 TC 65 -13.6000 63.5000 4 -13.3000 63.2000 TC 60 5 210
1963340S05073 1964 114 SI MM AMANDA 1963-12-08 21:00:00 TS -13.7186 63.2443 main 924 891 P____P___PP_P_ SH021964 -13.8000 63.3000 -1 -13.5925 63.1575 99 -13.8000 63.3000 TC 65 -13.8080 63.3065 4 -13.5925 63.1575 TC 62 6 209
1963340S05073 1964 114 SI MM AMANDA 1963-12-09 00:00:00 TS -13.9630 63.1055 reunion main 891 876 O____O___OP_O_ jtwc_sh SH021964 -14.0000 63.1000 -1 -13.9000 63.1000 99 9.90000 -14.0000 63.1000 TC 65 -14.0149 63.1274 4 -13.9000 63.1000 TC 65 5 212
1963340S05073 1964 114 SI MM AMANDA 1963-12-09 03:00:00 TS -14.1459 62.9689 main 876 845 P____P___PP_P_ SH021964 -14.2075 62.9425 -1 -14.0500 63.0000 99 -14.2075 62.9425 TC 65 -14.2143 62.9596 4 -14.0500 63.0000 TC 65 4 216
1963340S05073 1964 114 SI MM AMANDA 1963-12-09 06:00:00 TS -14.3200 62.8400 reunion main 845 821 O____O___OO_O_ jtwc_sh SH021964 -14.4000 62.8000 -1 -14.2000 62.9000 99 9.90000 -14.4000 62.8000 TC 65 -14.4000 62.8000 4 -14.2000 62.9000 TC 65 5 212
1963340S05073 1964 114 SI MM AMANDA 1963-12-09 09:00:00 TS -14.5329 62.7223 main 821 797 P____P___PP_P_ SH021964 -14.5575 62.6500 -1 -14.4925 62.8425 99 -14.5575 62.6500 TC 65 -14.5644 62.6265 4 -14.4925 62.8425 TC 65 5 207
1963340S05073 1964 114 SI MM AMANDA 1963-12-09 12:00:00 TS -14.7430 62.6125 reunion main 797 773 O____O___OP_O_ jtwc_sh SH021964 -14.7000 62.5000 -1 -14.8000 62.8000 4 9.90000 -14.7000 62.5000 TC 65 -14.7150 62.4625 4 -14.8000 62.8000 TC 65 4 210
1963340S05073 1964 114 SI MM AMANDA 1963-12-09 15:00:00 TS -14.9146 62.4974 main 773 749 P____P___PP_P_ SH021964 -14.8500 62.3425 -1 -15.0075 62.7425 4 -14.8500 62.3425 TC 65 -14.8581 62.3172 4 -15.0075 62.7425 TC 67 4 212
1963340S05073 1964 114 SI MM AMANDA 1963-12-09 18:00:00 TS -15.0800 62.4000 reunion main 749 725 O____O___OO_O_ jtwc_sh SH021964 -15.0000 62.2000 -1 -15.2000 62.7000 99 9.90000 -15.0000 62.2000 TC 65 -15.0000 62.2000 4 -15.2000 62.7000 TC 70 4 205
1963340S05073 1964 114 SI MM AMANDA 1963-12-09 21:00:00 TS -15.2619 62.3296 main 725 716 P____P___PP_P_ SH021964 -15.1500 62.0775 -1 -15.4500 62.7000 99 -15.1500 62.0775 TC 65 -15.1093 62.0929 4 -15.4500 62.7000 TC 72 4 197
1963340S05073 1964 114 SI MM AMANDA 1963-12-10 00:00:00 TS -15.4450 62.2836 reunion main 716 693 O____O___OP_O_ jtwc_sh SH021964 -15.3000 62.0000 -1 -15.7000 62.7000 99 9.90000 -15.3000 62.0000 TC 65 -15.2249 62.0178 4 -15.7000 62.7000 TC 75 3 193
1963340S05073 1964 114 SI MM AMANDA 1963-12-10 03:00:00 TS -15.5976 62.2448 main 693 676 P____P___PP_P_ SH021964 -15.4200 61.9700 -1 -15.8850 62.6500 99 -15.4200 61.9700 TC 65 -15.3781 61.9837 4 -15.8850 62.6500 TC 75 4 188
1963340S05073 1964 114 SI MM AMANDA 1963-12-10 06:00:00 TS -15.8000 62.2400 reunion main 676 660 O____O___OO_O_ jtwc_sh SH021964 -15.6000 62.0000 -1 -16.1000 62.6000 99 9.90000 -15.6000 62.0000 TC 65 -15.6000 62.0000 4 -16.1000 62.6000 TC 75 5 175
1963340S05073 1964 114 SI MM AMANDA 1963-12-10 09:00:00 TS -16.1309 62.2813 main 660 630 P____P___PP_P_ SH021964 -15.9050 62.0775 -1 -16.4500 62.5925 99 -15.9050 62.0775 TC 65 -15.9444 62.0663 4 -16.4500 62.5925 TC 77 7 171
1963340S05073 1964 114 SI MM AMANDA 1963-12-10 12:00:00 TS -16.5110 62.3564 reunion main 639 618 O____O___OP_O_ jtwc_sh SH021964 -16.3000 62.2000 -1 -16.8000 62.6000 4 9.90000 -16.3000 62.2000 TC 65 -16.3550 62.1821 4 -16.8000 62.6000 TC 80 8 169
1963340S05073 1964 114 SI MM AMANDA 1963-12-10 15:00:00 TS -16.8636 62.4374 main 611 600 P____P___PP_P_ SH021964 -16.7575 62.3424 -1 -17.0075 62.5851 4 -16.7575 62.3424 TC 65 -16.7882 62.3320 4 -17.0075 62.5851 TC 77 7 166
1963340S05073 1964 114 SI MM AMANDA 1963-12-10 18:00:00 TS -17.2000 62.5400 reunion main 600 592 O____O___OO_O_ jtwc_sh SH021964 -17.2000 62.5000 -1 -17.2000 62.6000 99 9.90000 -17.2000 62.5000 TC 65 -17.2000 62.5000 4 -17.2000 62.6000 TC 75 7 162
1963340S05073 1964 114 SI MM AMANDA 1963-12-10 21:00:00 TS -17.5115 62.6632 main 601 590 P____P___PP_P_ SH021964 -17.5225 62.6426 -1 -17.5000 62.6849 99 -17.5225 62.6426 TC 65 -17.5125 62.6609 4 -17.5000 62.6849 TC 70 7 157
1963340S05073 1964 114 SI MM AMANDA 1963-12-11 00:00:00 TS -17.8000 62.8071 reunion main 594 589 O____O___OP_O_ jtwc_sh SH021964 -17.8000 62.8000 -1 -17.8000 62.8000 99 9.90000 -17.8000 62.8000 TC 65 -17.8000 62.8354 4 -17.8000 62.8000 TC 65 6 152
1963340S05073 1964 114 SI MM AMANDA 1963-12-11 03:00:00 TS -18.0455 62.9635 main 603 594 P____P___PP_P_ SH021964 -18.0850 63.0000 -1 -17.9850 62.9001 99 -18.0850 63.0000 TC 65 -18.0875 63.0172 4 -17.9850 62.9001 TC 65 6 150
1963340S05073 1964 114 SI MM AMANDA 1963-12-11 06:00:00 TS -18.3200 63.1200 reunion main 599 593 O____O___OO_O_ jtwc_sh SH021964 -18.4000 63.2000 -1 -18.2000 63.0000 99 9.90000 -18.4000 63.2000 TC 65 -18.4000 63.2000 4 -18.2000 63.0000 TC 65 7 158
1963340S05073 1964 114 SI MM AMANDA 1963-12-11 09:00:00 TS -18.6962 63.2432 main 593 593 P____P___PP_P_ SH021964 -18.7850 63.3501 -1 -18.5699 63.0702 99 -18.7850 63.3501 TC 65 -18.7712 63.3751 4 -18.5699 63.0702 TC 62 8 162
1963340S05073 1964 114 SI MM AMANDA 1963-12-11 12:00:00 TS -19.1140 63.3900 reunion main 601 598 O____O___OP_O_ jtwc_sh SH021964 -19.2000 63.5000 -1 -19.0000 63.2000 3 9.90000 -19.2000 63.5000 TC 65 -19.1700 63.5502 4 -19.0000 63.2000 TC 60 9 157
1963340S05073 1964 114 SI MM AMANDA 1963-12-11 15:00:00 TS -19.5198 63.6100 main 612 611 P____P___PP_P_ SH021964 -19.6000 63.7000 -1 -19.4075 63.4624 3 -19.6000 63.7000 TC 65 -19.5837 63.7252 4 -19.4075 63.4624 TC 60 9 151
1963340S05073 1964 114 SI MM AMANDA 1963-12-11 18:00:00 TS -19.9200 63.8600 reunion main 638 636 O____O___OO_O_ jtwc_sh SH021964 -20.0000 63.9000 -1 -19.8000 63.8000 99 9.90000 -20.0000 63.9000 TC 65 -20.0000 63.9000 4 -19.8000 63.8000 TC 60 9 150
1963340S05073 1964 114 SI MM AMANDA 1963-12-11 21:00:00 TS -20.2964 64.0786 main 656 656 P____P___PP_P_ SH021964 -20.3999 64.0502 -1 -20.1573 64.1203 99 -20.3999 64.0502 TC 65 -20.3673 64.0518 4 -20.1573 64.1203 TC 57 9 150
1963340S05073 1964 114 SI MM AMANDA 1963-12-12 00:00:00 TS -20.6679 64.3214 reunion main 678 678 O____O___OP_O_ jtwc_sh SH021964 -20.8000 64.2000 -1 -20.5000 64.5000 99 9.90000 -20.8000 64.2000 TC 65 -20.7396 64.2069 4 -20.5000 64.5000 TC 55 9 146
1963340S05073 1964 114 SI MM AMANDA 1963-12-12 03:00:00 TS -21.0363 64.6099 main 711 711 P____P___PP_P_ SH021964 -21.1774 64.3778 -1 -20.8423 64.9554 99 -21.1774 64.3778 TC 65 -21.1422 64.3834 4 -20.8423 64.9554 TC 55 10 142
1963340S05073 1964 114 SI MM AMANDA 1963-12-12 06:00:00 TS -21.4400 64.9600 reunion main 758 758 O____O___OO_O_ jtwc_sh SH021964 -21.6000 64.6000 -1 -21.2000 65.5000 99 9.90000 -21.6000 64.6000 TC 65 -21.6000 64.6000 4 -21.2000 65.5000 TC 55 11 141
1963340S05073 1964 114 SI MM AMANDA 1963-12-12 09:00:00 TS -21.9154 65.3753 main 808 808 P____P___PP_P_ SH021964 -22.1125 64.8777 -1 -21.5924 66.1202 99 -22.1125 64.8777 TC 65 -22.1670 64.8810 4 -21.5924 66.1202 TC 52 13 141
1963340S05073 1964 114 SI MM AMANDA 1963-12-12 12:00:00 TS -22.4370 65.8408 reunion main 860 860 O____O___OP_O_ jtwc_sh SH021964 -22.7000 65.2000 -1 -22.0000 66.8000 3 9.90000 -22.7000 65.2000 TC 65 -22.7852 65.2038 4 -22.0000 66.8000 TC 50 14 146
1963340S05073 1964 114 SI MM AMANDA 1963-12-12 15:00:00 TS -23.0560 66.1999 main 922 922 P____P___PP_P_ SH021964 -23.3650 65.5498 -1 -22.4030 67.4968 3 -23.3650 65.5498 TC 65 -23.4108 65.5499 4 -22.4030 67.4968 TC 47 14 155
1963340S05073 1964 114 SI MM AMANDA 1963-12-12 18:00:00 TS -23.7000 66.4750 reunion main 973 973 O____O___OO_O_ jtwc_sh SH021964 -24.0000 65.9000 -1 -22.8000 68.2000 99 9.90000 -24.0000 65.9000 TC 65 -24.0000 65.9000 4 -22.8000 68.2000 TC 45 13 164
1963340S05073 1964 114 SI MM AMANDA 1963-12-12 21:00:00 TS -24.2839 66.5734 main 1008 1007 P________PP___ SH021964 -24.4798 66.2006 -1 99 -24.4798 66.2006 TC 65 -24.4557 66.1917 4 TC 12 179
1963340S05073 1964 114 SI MM AMANDA 1963-12-13 00:00:00 TS -24.8921 66.4958 reunion main 1027 1027 O________OP___ jtwc_sh SH021964 -24.9000 66.5000 -1 -24.9000 66.5000 TC 65 -24.8762 66.4874 4 11 168
1963340S05073 1964 114 SI MM AMANDA 1963-12-13 03:00:00 TS -25.3161 66.8186 main 1074 1074 P________PP___ SH021964 -25.3198 66.8208 -1 -25.3198 66.8208 TC 65 -25.3086 66.8142 4 11 145
1963340S05073 1964 114 SI MM AMANDA 1963-12-13 06:00:00 TS -25.8000 67.2000 reunion main 1136 1136 O________OO___ jtwc_sh SH021964 -25.8000 67.2000 -1 -25.8000 67.2000 TC 65 -25.8000 67.2000 4 13 145
1963340S05073 1964 114 SI MM AMANDA 1963-12-13 09:00:00 TS -26.4158 67.6647 main 1213 1213 P________PP___ SH021964 -26.4124 67.6628 -1 -26.4124 67.6628 TC 50 -26.4225 67.6685 4 16 145
1963340S05073 1964 114 SI MM AMANDA 1963-12-13 12:00:00 TS -27.1016 68.2007 reunion main 1296 1296 O________OP___ jtwc_sh SH021964 -27.1000 68.2000 -1 -27.1000 68.2000 TC 35 -27.1049 68.2021 4 17 145
1963340S05073 1964 114 SI MM AMANDA 1963-12-13 15:00:00 TS -27.8081 68.7801 main 1388 1388 P________PP___ SH021964 -27.8073 68.7778 -1 -27.8073 68.7778 TC 30 -27.8098 68.7848 4 18 143
1963340S05073 1964 114 SI MM AMANDA 1963-12-13 18:00:00 TS -28.5000 69.4000 reunion main 1481 1481 O________OO___ jtwc_sh SH021964 -28.5000 69.4000 -1 -28.5000 69.4000 TC 25 -28.5000 69.4000 7 17 140
1963340S05073 1964 114 SI MM AMANDA 1963-12-13 21:00:00 TS -29.1255 70.0398 main 1567 1567 P________PP___ SH021964 -29.1148 70.0434 -1 -29.1148 70.0434 TC 25 -29.1469 70.0325 7 17 137
1963340S05073 1964 114 SI MM AMANDA 1963-12-14 00:00:00 TS -29.7182 70.6926 reunion main 1661 1661 O________OP___ jtwc_sh SH021964 -29.7000 70.7000 -1 -29.7000 70.7000 TC 25 -29.7546 70.6779 7 16 136
1963340S05073 1964 114 SI MM AMANDA 1963-12-14 03:00:00 TS -30.3087 71.3453 main 1747 1747 P________PP___ SH021964 -30.2956 71.3508 -1 -30.2956 71.3508 TC 25 -30.3350 71.3343 7 16 136
1963340S05073 1964 114 SI MM AMANDA 1963-12-14 06:00:00 TS -30.9000 72.0000 main 1840 O________OO___ jtwc_sh SH021964 -30.9000 72.0000 -1 -30.9000 72.0000 TC 25 -30.9000 72.0000 7 16 136

IBTrACS Databaseについて

本データベースは、米国NOAAが公開する1842年以降の世界の熱帯低気圧のベストトラックデータアーカイブInternational Best Track Archive for Climate Stewardship (IBTrACS)を、ウェブで閲覧しやすい形式に変換したものです。

最終更新日:2021-11-26